createdAt,value
2023-05-13T00:01:58.138Z,13.82
2023-05-13T00:04:25.110Z,13.81
2023-05-13T00:06:52.506Z,13.79
2023-05-13T00:09:19.557Z,13.78
2023-05-13T00:11:46.641Z,13.77
2023-05-13T00:14:14.913Z,13.73
2023-05-13T00:16:44.189Z,13.67
2023-05-13T00:19:12.973Z,13.58
2023-05-13T00:21:40.021Z,13.51
2023-05-13T00:24:07.523Z,13.44
2023-05-13T00:26:34.657Z,13.38
2023-05-13T00:29:01.645Z,13.34
2023-05-13T00:31:28.822Z,13.28
2023-05-13T00:33:56.502Z,13.25
2023-05-13T00:36:24.281Z,13.23
2023-05-13T00:38:51.364Z,13.23
2023-05-13T00:41:18.938Z,13.22
2023-05-13T00:43:46.058Z,13.23
2023-05-13T00:46:13.166Z,13.24
2023-05-13T00:48:40.174Z,13.24
2023-05-13T00:51:09.936Z,13.24
2023-05-13T00:53:37.878Z,13.22
2023-05-13T00:56:05.248Z,13.23
2023-05-13T00:58:32.364Z,13.24
2023-05-13T01:01:05.536Z,13.26
2023-05-13T01:03:59.444Z,13.26
2023-05-13T01:06:44.878Z,13.24
2023-05-13T01:09:18.555Z,13.24
2023-05-13T01:11:45.596Z,13.19
2023-05-13T01:14:22.313Z,13.14
2023-05-13T01:17:02.466Z,13.11
2023-05-13T01:19:43.328Z,13.10
2023-05-13T01:22:11.898Z,13.06
2023-05-13T01:24:38.923Z,13.02
2023-05-13T01:27:06.146Z,12.99
2023-05-13T01:29:33.208Z,12.93
2023-05-13T01:32:00.427Z,12.89
2023-05-13T01:34:27.654Z,12.87
2023-05-13T01:36:54.692Z,12.84
2023-05-13T01:39:22.256Z,12.80
2023-05-13T01:41:49.635Z,12.77
2023-05-13T01:44:18.057Z,12.74
2023-05-13T01:46:45.597Z,12.73
2023-05-13T01:49:13.100Z,12.72
2023-05-13T01:51:41.545Z,12.70
2023-05-13T01:54:08.815Z,12.70
2023-05-13T01:56:40.364Z,12.70
2023-05-13T01:59:10.701Z,12.69
2023-05-13T02:01:37.750Z,12.69
2023-05-13T02:04:07.354Z,12.66
2023-05-13T02:06:34.516Z,12.64
2023-05-13T02:09:01.994Z,12.60
2023-05-13T02:11:29.414Z,12.56
2023-05-13T02:13:57.631Z,12.55
2023-05-13T02:16:24.677Z,12.54
2023-05-13T02:18:51.804Z,12.52
2023-05-13T02:21:19.723Z,12.52
2023-05-13T02:23:46.946Z,12.50
2023-05-13T02:26:13.921Z,12.47
2023-05-13T02:28:40.988Z,12.44
2023-05-13T02:31:08.342Z,12.42
2023-05-13T02:33:35.852Z,12.39
2023-05-13T02:36:02.965Z,12.37
2023-05-13T02:38:30.052Z,12.35
2023-05-13T02:40:57.124Z,12.33
2023-05-13T02:43:27.699Z,12.30
2023-05-13T02:45:57.294Z,12.28
2023-05-13T02:48:24.884Z,12.27
2023-05-13T02:50:53.015Z,12.28
2023-05-13T02:53:20.591Z,12.30
2023-05-13T02:55:52.590Z,12.32
2023-05-13T02:58:20.566Z,12.34
2023-05-13T03:00:47.683Z,12.36
2023-05-13T03:03:15.941Z,12.38
2023-05-13T03:05:43.199Z,12.39
2023-05-13T03:08:10.226Z,12.42
2023-05-13T03:10:38.274Z,12.48
2023-05-13T03:13:08.943Z,12.54
2023-05-13T03:15:36.371Z,12.58
2023-05-13T03:18:03.851Z,12.63
2023-05-13T03:20:31.528Z,12.66
2023-05-13T03:22:59.780Z,12.68
2023-05-13T03:25:27.807Z,12.73
2023-05-13T03:27:57.620Z,12.85
2023-05-13T03:30:26.625Z,12.93
2023-05-13T03:33:00.145Z,13.02
2023-05-13T03:35:27.520Z,13.13
2023-05-13T03:37:54.915Z,13.23
2023-05-13T03:40:22.350Z,13.34
2023-05-13T03:42:52.190Z,13.46
2023-05-13T03:45:20.668Z,13.58
2023-05-13T03:47:50.461Z,13.70
2023-05-13T03:50:18.066Z,13.84
2023-05-13T03:52:47.094Z,13.97
2023-05-13T03:55:15.669Z,14.09
2023-05-13T03:57:48.323Z,14.30
2023-05-13T04:00:17.595Z,14.48
2023-05-13T04:02:44.841Z,14.63
2023-05-13T04:05:14.211Z,14.75
2023-05-13T04:07:47.665Z,14.86
2023-05-13T04:10:15.810Z,14.98
2023-05-13T04:12:43.843Z,15.12
2023-05-13T04:15:11.076Z,15.21
2023-05-13T04:17:38.274Z,15.21
2023-05-13T04:20:07.749Z,15.27
2023-05-13T04:22:35.490Z,15.37
2023-05-13T04:25:02.853Z,15.46
2023-05-13T04:27:29.856Z,15.55
2023-05-13T04:30:09.189Z,15.66
2023-05-13T04:32:39.396Z,15.76
2023-05-13T04:35:09.966Z,15.91
2023-05-13T04:37:38.991Z,16.12
2023-05-13T04:40:11.653Z,16.26
2023-05-13T04:42:38.692Z,16.38
2023-05-13T04:45:06.425Z,16.47
2023-05-13T04:47:35.509Z,16.57
2023-05-13T04:50:02.594Z,16.62
2023-05-13T04:52:31.387Z,16.69
2023-05-13T04:54:58.513Z,16.80
2023-05-13T04:57:31.737Z,16.92
2023-05-13T04:59:59.653Z,17.04
2023-05-13T05:02:30.403Z,17.16
2023-05-13T05:04:57.670Z,17.30
2023-05-13T05:07:24.828Z,17.36
2023-05-13T05:09:52.347Z,17.39
2023-05-13T05:12:19.580Z,17.46
2023-05-13T05:14:46.582Z,17.54
2023-05-13T05:17:13.647Z,17.62
2023-05-13T05:19:41.514Z,17.72
2023-05-13T05:22:09.005Z,17.81
2023-05-13T05:24:36.006Z,17.92
2023-05-13T05:27:03.624Z,18.03
2023-05-13T05:29:30.696Z,18.17
2023-05-13T05:31:57.924Z,18.32
2023-05-13T05:34:26.796Z,18.45
2023-05-13T05:36:56.050Z,18.59
2023-05-13T05:39:23.297Z,18.72
2023-05-13T05:41:50.492Z,18.85
2023-05-13T05:44:17.741Z,18.98
2023-05-13T05:46:45.539Z,19.09
2023-05-13T05:49:13.734Z,19.19
2023-05-13T05:51:41.959Z,19.32
2023-05-13T05:54:09.160Z,19.47
2023-05-13T05:56:39.105Z,19.63
2023-05-13T05:59:06.664Z,19.76
2023-05-13T06:01:37.945Z,19.96
2023-05-13T06:04:05.786Z,20.10
2023-05-13T06:06:33.107Z,20.29
2023-05-13T06:09:00.486Z,20.49
2023-05-13T06:11:27.814Z,20.55
2023-05-13T06:13:57.745Z,20.66
2023-05-13T06:16:24.830Z,20.78
2023-05-13T06:18:52.589Z,20.90
2023-05-13T06:21:19.761Z,21.00
2023-05-13T06:23:49.442Z,21.07
2023-05-13T06:26:17.209Z,21.13
2023-05-13T06:28:44.942Z,21.19
2023-05-13T06:31:12.213Z,21.28
2023-05-13T06:33:40.624Z,21.47
2023-05-13T06:36:09.503Z,21.68
2023-05-13T06:38:37.814Z,21.83
2023-05-13T06:41:05.215Z,21.96
2023-05-13T06:43:39.175Z,22.07
2023-05-13T06:46:21.184Z,22.11
2023-05-13T06:48:52.693Z,22.20
2023-05-13T06:51:19.714Z,22.39
2023-05-13T06:53:52.637Z,22.49
2023-05-13T06:56:27.089Z,22.44
2023-05-13T06:58:56.663Z,22.46
2023-05-13T07:01:29.900Z,22.52
2023-05-13T07:03:57.682Z,22.63
2023-05-13T07:06:24.867Z,22.69
2023-05-13T07:08:52.150Z,22.85
2023-05-13T07:11:20.111Z,22.81
2023-05-13T07:15:24.682Z,22.83
2023-05-13T07:17:52.412Z,22.97
2023-05-13T07:20:23.116Z,22.95
2023-05-13T07:22:54.186Z,22.96
2023-05-13T07:25:22.222Z,23.00
2023-05-13T07:27:50.208Z,23.11
2023-05-13T07:30:18.778Z,23.21
2023-05-13T07:32:46.031Z,23.32
2023-05-13T07:35:13.197Z,23.40
2023-05-13T07:37:40.546Z,23.46
2023-05-13T07:40:08.429Z,23.50
2023-05-13T07:42:37.406Z,23.54
2023-05-13T07:45:11.303Z,23.58
2023-05-13T07:47:39.274Z,23.64
2023-05-13T07:50:07.467Z,23.75
2023-05-13T07:52:34.875Z,23.96
2023-05-13T07:55:02.734Z,24.06
2023-05-13T07:57:37.437Z,24.11
2023-05-13T08:00:07.758Z,24.24
2023-05-13T08:02:41.770Z,24.33
2023-05-13T08:05:11.965Z,24.38
2023-05-13T08:07:39.228Z,24.36
2023-05-13T08:10:10.025Z,24.34
2023-05-13T08:12:37.984Z,24.40
2023-05-13T08:20:44.055Z,24.72
2023-05-13T08:23:12.488Z,24.86
2023-05-13T08:25:43.225Z,24.90
2023-05-13T08:28:27.405Z,25.01
2023-05-13T08:30:54.601Z,25.15
2023-05-13T08:33:29.829Z,25.20
2023-05-13T08:36:29.512Z,25.24
2023-05-13T08:38:56.882Z,25.24
2023-05-13T08:41:23.932Z,25.30
2023-05-13T08:43:51.011Z,25.41
2023-05-13T08:46:18.204Z,25.43
2023-05-13T08:48:45.566Z,25.49
2023-05-13T08:51:13.381Z,25.53
2023-05-13T08:53:41.301Z,25.63
2023-05-13T08:56:08.698Z,25.81
2023-05-13T08:58:35.873Z,25.98
2023-05-13T09:01:04.603Z,26.07
2023-05-13T09:03:31.678Z,26.13
2023-05-13T09:06:01.893Z,26.27
2023-05-13T09:08:29.136Z,26.39
2023-05-13T09:10:57.108Z,26.37
2023-05-13T09:13:26.920Z,26.26
2023-05-13T09:15:54.266Z,26.15
2023-05-13T09:18:21.925Z,26.01
2023-05-13T09:20:49.273Z,25.88
2023-05-13T09:23:16.372Z,25.75
2023-05-13T09:25:43.369Z,25.62
2023-05-13T09:28:14.662Z,25.60
2023-05-13T09:30:44.530Z,25.58
2023-05-13T09:33:14.168Z,25.61
2023-05-13T09:35:54.169Z,25.58
2023-05-13T09:38:25.574Z,25.62
2023-05-13T09:40:59.367Z,25.76
2023-05-13T09:43:29.010Z,25.90
2023-05-13T09:45:57.810Z,25.92
2023-05-13T09:48:26.617Z,25.83
2023-05-13T09:50:55.862Z,25.58
2023-05-13T09:53:23.645Z,25.35
2023-05-13T09:55:53.094Z,25.22
2023-05-13T09:58:21.354Z,25.19
2023-05-13T10:00:52.888Z,25.23
2023-05-13T10:03:21.524Z,25.18
2023-05-13T10:05:51.085Z,25.11
2023-05-13T10:08:18.414Z,25.15
2023-05-13T10:10:47.011Z,25.33
2023-05-13T10:13:16.617Z,25.56
2023-05-13T10:15:54.555Z,25.77
2023-05-13T10:18:22.594Z,26.02
2023-05-13T10:20:54.271Z,26.25
2023-05-13T10:23:23.295Z,26.57
2023-05-13T10:25:51.439Z,26.89
2023-05-13T10:28:18.546Z,27.12
2023-05-13T10:30:45.863Z,27.24
2023-05-13T10:33:13.492Z,27.22
2023-05-13T10:35:48.626Z,27.17
2023-05-13T10:38:31.426Z,27.16
2023-05-13T10:41:11.006Z,27.12
2023-05-13T10:43:38.680Z,27.21
2023-05-13T10:46:08.475Z,27.40
2023-05-13T10:48:41.055Z,27.47
2023-05-13T10:51:09.205Z,27.54
2023-05-13T10:53:39.275Z,27.63
2023-05-13T10:56:08.287Z,27.57
2023-05-13T10:58:39.147Z,27.48
2023-05-13T11:01:18.125Z,27.43
2023-05-13T11:03:55.707Z,27.46
2023-05-13T11:06:24.402Z,27.54
2023-05-13T11:08:55.076Z,27.57
2023-05-13T11:11:31.201Z,27.66
2023-05-13T11:14:14.875Z,27.77
2023-05-13T11:16:52.658Z,27.79
2023-05-13T11:19:27.449Z,27.70
2023-05-13T11:21:58.761Z,27.55
2023-05-13T11:24:26.738Z,27.42
2023-05-13T11:26:58.021Z,27.30
2023-05-13T11:29:38.994Z,27.23
2023-05-13T11:32:07.213Z,27.25
2023-05-13T11:34:34.728Z,27.32
2023-05-13T11:37:05.194Z,27.41
2023-05-13T11:39:34.036Z,27.46
2023-05-13T11:42:08.455Z,27.39
2023-05-13T11:44:35.589Z,27.38
2023-05-13T11:47:06.240Z,27.39
2023-05-13T11:49:36.648Z,27.43
2023-05-13T11:52:04.746Z,27.60
2023-05-13T11:54:33.118Z,27.80
2023-05-13T11:57:00.235Z,27.95
2023-05-13T11:59:33.335Z,28.10
2023-05-13T12:02:05.892Z,28.26
2023-05-13T12:04:34.046Z,28.26
2023-05-13T12:07:01.078Z,28.16
2023-05-13T12:09:28.074Z,28.13
2023-05-13T12:11:55.119Z,28.13
2023-05-13T12:14:22.205Z,27.97
2023-05-13T12:16:49.859Z,27.94
2023-05-13T12:19:17.093Z,27.90
2023-05-13T12:21:44.753Z,27.90
2023-05-13T12:24:19.608Z,27.83
2023-05-13T12:26:46.672Z,27.80
2023-05-13T12:29:13.742Z,27.82
2023-05-13T12:31:44.378Z,27.83
2023-05-13T12:34:12.926Z,27.89
2023-05-13T12:36:40.312Z,28.05
2023-05-13T12:39:19.869Z,28.23
2023-05-13T12:41:57.656Z,28.43
2023-05-13T12:44:29.400Z,28.65
2023-05-13T12:47:01.377Z,28.91
2023-05-13T12:49:28.591Z,29.07
2023-05-13T12:51:57.012Z,29.09
2023-05-13T12:54:25.569Z,29.16
2023-05-13T12:56:52.655Z,29.20
2023-05-13T12:59:19.696Z,29.24
2023-05-13T13:01:48.376Z,29.25
2023-05-13T13:04:18.038Z,29.18
2023-05-13T13:06:45.363Z,29.11
2023-05-13T13:09:13.007Z,28.96
2023-05-13T13:11:40.309Z,28.76
2023-05-13T13:14:09.761Z,28.81
2023-05-13T13:16:36.790Z,28.96
2023-05-13T13:19:03.940Z,29.04
2023-05-13T13:21:30.947Z,29.03
2023-05-13T13:23:58.044Z,29.06
2023-05-13T13:26:38.411Z,29.13
2023-05-13T13:29:15.249Z,29.07
2023-05-13T13:31:50.489Z,28.95
2023-05-13T13:34:21.009Z,28.85
2023-05-13T13:36:48.333Z,28.81
2023-05-13T13:39:15.843Z,28.91
2023-05-13T13:41:43.005Z,29.12
2023-05-13T13:44:10.305Z,29.25
2023-05-13T13:46:37.848Z,29.32
2023-05-13T13:49:13.073Z,29.44
2023-05-13T13:51:50.314Z,29.58
2023-05-13T13:54:17.646Z,29.72
2023-05-13T13:56:45.854Z,29.84
2023-05-13T13:59:13.785Z,29.96
2023-05-13T14:01:41.615Z,30.06
2023-05-13T14:04:28.090Z,30.19
2023-05-13T14:06:55.814Z,30.30
2023-05-13T14:09:22.932Z,30.35
2023-05-13T14:11:50.154Z,30.33
2023-05-13T14:14:37.315Z,30.31
2023-05-13T14:17:04.574Z,30.31
2023-05-13T14:19:31.758Z,30.43
2023-05-13T14:21:59.294Z,30.76
2023-05-13T14:24:27.859Z,31.20
2023-05-13T14:26:55.173Z,31.76
2023-05-13T14:29:22.209Z,32.47
2023-05-13T14:31:59.233Z,33.06
2023-05-13T14:34:26.342Z,33.22
2023-05-13T14:36:53.318Z,33.07
2023-05-13T14:39:22.500Z,32.72
2023-05-13T14:41:49.769Z,32.12
2023-05-13T14:44:17.035Z,31.45
2023-05-13T14:46:44.074Z,30.82
2023-05-13T14:49:11.146Z,30.37
2023-05-13T14:51:38.379Z,30.13
2023-05-13T14:54:05.652Z,29.99
2023-05-13T14:56:32.861Z,29.86
2023-05-13T14:59:02.588Z,29.72
2023-05-13T15:01:29.709Z,29.56
2023-05-13T15:04:00.967Z,29.41
2023-05-13T15:06:29.351Z,29.25
2023-05-13T15:08:56.698Z,29.05
2023-05-13T15:11:27.071Z,28.81
2023-05-13T15:13:55.157Z,28.66
2023-05-13T15:16:22.828Z,28.56
2023-05-13T15:18:50.601Z,28.49
2023-05-13T15:21:18.252Z,28.64
2023-05-13T15:23:46.057Z,29.03
2023-05-13T15:26:14.068Z,29.56
2023-05-13T15:28:45.589Z,30.17
2023-05-13T15:31:13.170Z,30.84
2023-05-13T15:33:42.347Z,31.49
2023-05-13T15:36:10.771Z,32.15
2023-05-13T15:38:40.990Z,32.70
2023-05-13T15:41:08.473Z,33.21
2023-05-13T15:43:36.295Z,33.57
2023-05-13T15:46:05.152Z,33.72
2023-05-13T15:48:35.403Z,33.94
2023-05-13T15:51:08.693Z,34.09
2023-05-13T15:53:37.871Z,34.20
2023-05-13T15:56:10.027Z,34.20
2023-05-13T15:58:37.849Z,34.12
2023-05-13T16:03:50.804Z,33.89
2023-05-13T16:06:19.016Z,33.75
2023-05-13T16:08:46.522Z,33.51
2023-05-13T16:11:14.878Z,33.24
2023-05-13T16:13:43.284Z,33.01
2023-05-13T16:16:23.429Z,32.91
2023-05-13T16:18:55.162Z,32.91
2023-05-13T16:21:26.459Z,32.39
2023-05-13T16:24:01.103Z,31.84
2023-05-13T16:26:28.266Z,31.52
2023-05-13T16:28:57.949Z,31.51
2023-05-13T16:31:27.161Z,31.66
2023-05-13T16:33:57.293Z,31.76
2023-05-13T16:36:25.222Z,31.63
2023-05-13T16:38:57.548Z,31.39
2023-05-13T16:41:25.444Z,31.11
2023-05-13T16:43:57.547Z,30.63
2023-05-13T16:46:30.625Z,30.05
2023-05-13T16:49:04.695Z,29.42
2023-05-13T16:51:36.751Z,29.19
2023-05-13T16:54:07.974Z,28.93
2023-05-13T16:59:42.422Z,28.08
2023-05-13T17:02:28.836Z,27.55
2023-05-13T17:04:57.030Z,27.09
2023-05-13T17:07:26.870Z,26.65
2023-05-13T17:09:55.360Z,26.23
2023-05-13T17:12:24.121Z,25.91
2023-05-13T17:14:59.415Z,25.64
2023-05-13T17:17:33.343Z,25.39
2023-05-13T17:20:09.043Z,25.20
2023-05-13T17:22:49.677Z,24.95
2023-05-13T17:25:31.000Z,24.62
2023-05-13T17:28:04.668Z,24.36
2023-05-13T17:30:43.310Z,24.14
2023-05-13T17:33:16.022Z,23.88
2023-05-13T17:35:47.392Z,23.61
2023-05-13T17:38:28.519Z,23.32
2023-05-13T17:44:01.197Z,22.90
2023-05-13T17:50:35.476Z,22.48
2023-05-13T17:56:29.319Z,22.10
2023-05-13T17:59:16.561Z,21.92
2023-05-13T18:01:58.152Z,21.72
2023-05-13T18:05:02.057Z,21.55
2023-05-13T18:07:48.774Z,21.30
2023-05-13T18:16:18.631Z,20.82
2023-05-13T18:18:48.814Z,20.69
2023-05-13T18:21:21.846Z,20.58
2023-05-13T18:23:51.992Z,20.43
2023-05-13T18:26:21.090Z,20.25
2023-05-13T18:28:54.302Z,20.03
2023-05-13T18:31:49.424Z,19.75
2023-05-13T18:34:26.384Z,19.52
2023-05-13T18:39:55.080Z,19.30
2023-05-13T18:42:30.341Z,19.23
2023-05-13T18:45:01.566Z,19.15
2023-05-13T18:57:29.310Z,18.89
2023-05-13T19:00:12.456Z,18.81
2023-05-13T19:10:55.740Z,18.59
2023-05-13T19:14:40.586Z,18.56
2023-05-13T19:23:55.461Z,18.40
2023-05-13T19:27:55.663Z,18.36
2023-05-13T19:56:07.255Z,18.24
2023-05-13T19:59:57.240Z,18.17
2023-05-13T20:02:24.974Z,18.07
2023-05-13T20:08:15.687Z,17.80
2023-05-13T20:24:22.256Z,17.52
2023-05-13T20:26:49.228Z,17.51
2023-05-13T20:29:25.082Z,17.49
2023-05-13T20:31:54.233Z,17.47
2023-05-13T20:34:36.567Z,17.44
2023-05-13T20:37:06.391Z,17.40
2023-05-13T20:39:44.742Z,17.38
2023-05-13T20:42:12.432Z,17.37
2023-05-13T20:44:41.598Z,17.31
2023-05-13T20:47:18.392Z,17.28
2023-05-13T20:49:52.950Z,17.30
2023-05-13T20:52:20.736Z,17.35
2023-05-13T20:54:53.332Z,17.37
2023-05-13T20:57:29.912Z,17.37
2023-05-13T20:59:58.343Z,17.41
2023-05-13T21:02:30.497Z,17.44
2023-05-13T21:04:57.654Z,17.45
2023-05-13T21:07:25.414Z,17.41
2023-05-13T21:09:55.898Z,17.40
2023-05-13T21:12:26.761Z,17.41
2023-05-13T21:14:53.891Z,17.32
2023-05-13T21:17:23.361Z,17.34
2023-05-13T21:19:51.184Z,17.41
2023-05-13T21:22:20.440Z,17.50
2023-05-13T21:24:51.451Z,17.59
2023-05-13T21:27:19.843Z,17.64
2023-05-13T21:29:48.361Z,17.69
2023-05-13T21:32:19.049Z,17.74
2023-05-13T21:34:46.196Z,17.76
2023-05-13T21:37:13.409Z,17.77
2023-05-13T21:39:40.469Z,17.76
2023-05-13T21:42:07.550Z,17.75
2023-05-13T21:44:34.603Z,17.75
2023-05-13T21:47:01.751Z,17.70
2023-05-13T21:49:28.859Z,17.65
2023-05-13T21:51:56.340Z,17.57
2023-05-13T21:54:23.411Z,17.46
2023-05-13T21:56:50.541Z,17.39
2023-05-13T21:59:17.969Z,17.37
2023-05-13T22:01:45.065Z,17.31
2023-05-13T22:04:12.187Z,17.28
2023-05-13T22:06:39.264Z,17.28
2023-05-13T22:09:07.201Z,17.28
2023-05-13T22:11:34.443Z,17.28
2023-05-13T22:14:01.553Z,17.26
2023-05-13T22:16:28.676Z,17.24
2023-05-13T22:18:58.849Z,17.24
2023-05-13T22:21:26.284Z,17.19
2023-05-13T22:23:53.482Z,17.13
2023-05-13T22:26:20.473Z,17.12
2023-05-13T22:28:48.776Z,17.14
2023-05-13T22:31:17.680Z,17.16
2023-05-13T22:33:46.192Z,17.16
2023-05-13T22:36:16.294Z,17.15
2023-05-13T22:38:43.380Z,17.10
2023-05-13T22:41:11.755Z,17.08
2023-05-13T22:43:38.788Z,17.05
2023-05-13T22:46:07.408Z,17.02
2023-05-13T22:48:34.522Z,16.95
2023-05-13T22:51:01.599Z,16.88
2023-05-13T22:53:28.645Z,16.82
2023-05-13T22:55:55.869Z,16.77
2023-05-13T22:58:22.890Z,16.74
2023-05-13T23:00:50.139Z,16.71
2023-05-13T23:03:17.367Z,16.69
2023-05-13T23:05:44.496Z,16.68
2023-05-13T23:08:11.470Z,16.69
2023-05-13T23:10:38.606Z,16.74
2023-05-13T23:13:08.248Z,16.77
2023-05-13T23:15:36.945Z,16.80
2023-05-13T23:18:04.222Z,16.85
2023-05-13T23:20:31.280Z,16.91
2023-05-13T23:22:58.310Z,16.97
2023-05-13T23:25:26.056Z,17.03
2023-05-13T23:27:53.069Z,17.09
2023-05-13T23:30:20.215Z,17.15
2023-05-13T23:32:47.316Z,17.24
2023-05-13T23:35:14.449Z,17.30
2023-05-13T23:37:41.489Z,17.35
2023-05-13T23:40:09.068Z,17.38
2023-05-13T23:42:36.260Z,17.36
2023-05-13T23:45:03.594Z,17.30
2023-05-13T23:47:30.717Z,17.20
2023-05-13T23:49:58.351Z,17.12
2023-05-13T23:52:25.441Z,17.03
2023-05-13T23:54:52.485Z,16.95
2023-05-13T23:57:19.576Z,16.91
2023-05-13T23:59:46.545Z,16.83
